sensor_id;sensor_type;location;lat;lon;timestamp;temperature;humidity
3794;DHT22;1912;51.358;12.282;2024-03-02T04:52:44;6.20;1.00
3794;DHT22;1912;51.358;12.282;2024-03-02T04:55:10;6.20;1.00
3794;DHT22;1912;51.358;12.282;2024-03-02T04:57:44;6.20;1.00
3794;DHT22;1912;51.358;12.282;2024-03-02T05:00:11;6.20;1.00
3794;DHT22;1912;51.358;12.282;2024-03-02T05:02:38;6.30;1.00
3794;DHT22;1912;51.358;12.282;2024-03-02T05:05:03;6.30;1.00
3794;DHT22;1912;51.358;12.282;2024-03-02T05:07:29;6.30;1.00
3794;DHT22;1912;51.358;12.282;2024-03-02T05:09:55;6.30;1.00
3794;DHT22;1912;51.358;12.282;2024-03-02T05:12:20;6.30;1.00
3794;DHT22;1912;51.358;12.282;2024-03-02T05:15:06;6.30;1.00
3794;DHT22;1912;51.358;12.282;2024-03-02T05:17:32;6.30;1.00
3794;DHT22;1912;51.358;12.282;2024-03-02T05:19:58;6.30;1.00
3794;DHT22;1912;51.358;12.282;2024-03-02T05:22:24;6.30;1.00
3794;DHT22;1912;51.358;12.282;2024-03-02T05:24:50;6.30;1.00
3794;DHT22;1912;51.358;12.282;2024-03-02T05:27:15;6.30;1.00
3794;DHT22;1912;51.358;12.282;2024-03-02T05:29:41;6.30;1.00
3794;DHT22;1912;51.358;12.282;2024-03-02T05:32:07;6.20;1.00
3794;DHT22;1912;51.358;12.282;2024-03-02T05:34:32;6.20;1.00
3794;DHT22;1912;51.358;12.282;2024-03-02T05:37:00;6.20;1.00
3794;DHT22;1912;51.358;12.282;2024-03-02T05:39:26;6.20;1.00
3794;DHT22;1912;51.358;12.282;2024-03-02T05:41:52;6.20;1.00
3794;DHT22;1912;51.358;12.282;2024-03-02T05:44:18;6.20;1.00
3794;DHT22;1912;51.358;12.282;2024-03-02T05:46:45;6.20;1.00
3794;DHT22;1912;51.358;12.282;2024-03-02T05:49:11;6.20;1.00
3794;DHT22;1912;51.358;12.282;2024-03-02T05:51:37;6.20;1.00
3794;DHT22;1912;51.358;12.282;2024-03-02T05:54:03;6.20;1.00
3794;DHT22;1912;51.358;12.282;2024-03-02T05:56:28;6.20;1.00
3794;DHT22;1912;51.358;12.282;2024-03-02T05:58:54;6.20;1.00
3794;DHT22;1912;51.358;12.282;2024-03-02T06:01:34;6.20;1.00
3794;DHT22;1912;51.358;12.282;2024-03-02T06:04:00;6.20;1.00
3794;DHT22;1912;51.358;12.282;2024-03-02T06:06:26;6.20;1.00
3794;DHT22;1912;51.358;12.282;2024-03-02T06:08:52;6.20;1.00
3794;DHT22;1912;51.358;12.282;2024-03-02T06:11:22;6.20;1.00
3794;DHT22;1912;51.358;12.282;2024-03-02T06:13:51;6.20;1.00
3794;DHT22;1912;51.358;12.282;2024-03-02T06:16:16;6.30;1.00
3794;DHT22;1912;51.358;12.282;2024-03-02T06:18:42;6.30;1.00
3794;DHT22;1912;51.358;12.282;2024-03-02T06:21:07;6.30;1.00
3794;DHT22;1912;51.358;12.282;2024-03-02T06:23:33;6.40;1.00
3794;DHT22;1912;51.358;12.282;2024-03-02T06:26:00;6.40;1.00
3794;DHT22;1912;51.358;12.282;2024-03-02T06:28:25;6.40;1.00
3794;DHT22;1912;51.358;12.282;2024-03-02T06:30:51;6.40;1.00
3794;DHT22;1912;51.358;12.282;2024-03-02T06:33:17;6.40;1.00
3794;DHT22;1912;51.358;12.282;2024-03-02T06:35:43;6.50;1.00
3794;DHT22;1912;51.358;12.282;2024-03-02T06:38:08;6.50;1.00
3794;DHT22;1912;51.358;12.282;2024-03-02T06:40:34;6.50;1.00
3794;DHT22;1912;51.358;12.282;2024-03-02T06:42:59;6.60;1.00
3794;DHT22;1912;51.358;12.282;2024-03-02T06:45:25;6.60;1.00
3794;DHT22;1912;51.358;12.282;2024-03-02T06:47:51;6.60;1.00
3794;DHT22;1912;51.358;12.282;2024-03-02T06:50:16;6.70;1.00
3794;DHT22;1912;51.358;12.282;2024-03-02T06:52:42;6.70;1.00
3794;DHT22;1912;51.358;12.282;2024-03-02T06:55:08;6.70;1.00
3794;DHT22;1912;51.358;12.282;2024-03-02T06:57:34;6.70;1.00
3794;DHT22;1912;51.358;12.282;2024-03-02T07:00:00;6.80;1.00
3794;DHT22;1912;51.358;12.282;2024-03-02T07:02:25;6.80;1.00
3794;DHT22;1912;51.358;12.282;2024-03-02T07:04:52;6.80;1.00
3794;DHT22;1912;51.358;12.282;2024-03-02T07:07:18;6.80;1.00
3794;DHT22;1912;51.358;12.282;2024-03-02T07:09:44;6.80;1.00
3794;DHT22;1912;51.358;12.282;2024-03-02T07:12:10;6.80;1.00
3794;DHT22;1912;51.358;12.282;2024-03-02T07:14:35;6.90;1.00
3794;DHT22;1912;51.358;12.282;2024-03-02T07:17:20;7.00;1.00
3794;DHT22;1912;51.358;12.282;2024-03-02T07:19:45;7.00;1.00
3794;DHT22;1912;51.358;12.282;2024-03-02T07:22:11;7.00;1.00
3794;DHT22;1912;51.358;12.282;2024-03-02T07:24:44;7.10;1.00
3794;DHT22;1912;51.358;12.282;2024-03-02T07:27:12;7.10;1.00
3794;DHT22;1912;51.358;12.282;2024-03-02T07:29:38;7.20;1.00
3794;DHT22;1912;51.358;12.282;2024-03-02T07:32:06;7.30;1.00
3794;DHT22;1912;51.358;12.282;2024-03-02T07:34:32;7.30;1.00
3794;DHT22;1912;51.358;12.282;2024-03-02T07:36:58;7.40;1.00
3794;DHT22;1912;51.358;12.282;2024-03-02T07:39:24;7.40;1.00
3794;DHT22;1912;51.358;12.282;2024-03-02T07:41:50;7.50;1.00
3794;DHT22;1912;51.358;12.282;2024-03-02T07:44:16;7.60;1.00
3794;DHT22;1912;51.358;12.282;2024-03-02T07:46:42;7.60;1.00
3794;DHT22;1912;51.358;12.282;2024-03-02T07:49:08;7.60;1.00
3794;DHT22;1912;51.358;12.282;2024-03-02T07:51:35;7.70;1.00
3794;DHT22;1912;51.358;12.282;2024-03-02T07:54:01;7.70;1.00
3794;DHT22;1912;51.358;12.282;2024-03-02T07:56:27;7.70;1.00
3794;DHT22;1912;51.358;12.282;2024-03-02T07:58:53;7.80;1.00
3794;DHT22;1912;51.358;12.282;2024-03-02T08:01:18;7.90;1.00
3794;DHT22;1912;51.358;12.282;2024-03-02T08:03:44;7.90;1.00
3794;DHT22;1912;51.358;12.282;2024-03-02T08:06:15;8.00;1.00
3794;DHT22;1912;51.358;12.282;2024-03-02T08:08:42;8.00;1.00
3794;DHT22;1912;51.358;12.282;2024-03-02T08:11:07;8.10;1.00
3794;DHT22;1912;51.358;12.282;2024-03-02T08:13:33;8.10;1.00
3794;DHT22;1912;51.358;12.282;2024-03-02T08:15:59;8.20;1.00
3794;DHT22;1912;51.358;12.282;2024-03-02T08:18:24;8.20;1.00
3794;DHT22;1912;51.358;12.282;2024-03-02T08:20:50;8.30;1.00
3794;DHT22;1912;51.358;12.282;2024-03-02T08:23:16;8.30;1.00
3794;DHT22;1912;51.358;12.282;2024-03-02T08:25:42;8.30;1.00
3794;DHT22;1912;51.358;12.282;2024-03-02T08:28:08;8.30;1.00
3794;DHT22;1912;51.358;12.282;2024-03-02T08:30:33;8.40;1.00
3794;DHT22;1912;51.358;12.282;2024-03-02T08:32:59;8.40;1.00
3794;DHT22;1912;51.358;12.282;2024-03-02T08:35:25;8.50;1.00
3794;DHT22;1912;51.358;12.282;2024-03-02T08:37:51;8.50;1.00
3794;DHT22;1912;51.358;12.282;2024-03-02T08:40:17;8.60;1.00
3794;DHT22;1912;51.358;12.282;2024-03-02T08:42:42;8.70;1.00
3794;DHT22;1912;51.358;12.282;2024-03-02T08:45:08;8.70;1.00
3794;DHT22;1912;51.358;12.282;2024-03-02T08:47:34;8.70;1.00
3794;DHT22;1912;51.358;12.282;2024-03-02T08:50:00;8.70;1.00
3794;DHT22;1912;51.358;12.282;2024-03-02T08:52:26;8.80;1.00
3794;DHT22;1912;51.358;12.282;2024-03-02T08:54:53;8.80;1.00
3794;DHT22;1912;51.358;12.282;2024-03-02T08:57:19;8.90;1.00
3794;DHT22;1912;51.358;12.282;2024-03-02T08:59:45;8.90;1.00
3794;DHT22;1912;51.358;12.282;2024-03-02T09:02:10;8.90;1.00
3794;DHT22;1912;51.358;12.282;2024-03-02T09:04:36;8.90;1.00
3794;DHT22;1912;51.358;12.282;2024-03-02T09:07:02;8.90;1.00
3794;DHT22;1912;51.358;12.282;2024-03-02T09:09:28;9.00;1.00
3794;DHT22;1912;51.358;12.282;2024-03-02T09:11:53;8.90;1.00
3794;DHT22;1912;51.358;12.282;2024-03-02T09:14:20;9.00;1.00
3794;DHT22;1912;51.358;12.282;2024-03-02T09:16:46;9.10;1.00
3794;DHT22;1912;51.358;12.282;2024-03-02T09:19:12;9.10;1.00
3794;DHT22;1912;51.358;12.282;2024-03-02T09:21:38;9.20;1.00
3794;DHT22;1912;51.358;12.282;2024-03-02T09:24:04;9.20;1.00
3794;DHT22;1912;51.358;12.282;2024-03-02T09:26:31;9.20;1.00
3794;DHT22;1912;51.358;12.282;2024-03-02T09:28:57;9.30;1.00
3794;DHT22;1912;51.358;12.282;2024-03-02T09:31:23;9.40;1.00
3794;DHT22;1912;51.358;12.282;2024-03-02T09:33:48;9.40;1.00
3794;DHT22;1912;51.358;12.282;2024-03-02T09:36:21;9.40;1.00
3794;DHT22;1912;51.358;12.282;2024-03-02T09:38:48;9.50;1.00
3794;DHT22;1912;51.358;12.282;2024-03-02T09:41:14;9.60;1.00
3794;DHT22;1912;51.358;12.282;2024-03-02T09:43:40;9.60;1.00
3794;DHT22;1912;51.358;12.282;2024-03-02T09:46:09;9.80;1.00
3794;DHT22;1912;51.358;12.282;2024-03-02T09:48:35;9.80;1.00
3794;DHT22;1912;51.358;12.282;2024-03-02T09:51:01;9.90;1.00
3794;DHT22;1912;51.358;12.282;2024-03-02T09:53:33;9.90;1.00
3794;DHT22;1912;51.358;12.282;2024-03-02T09:55:59;10.00;1.00
3794;DHT22;1912;51.358;12.282;2024-03-02T09:58:26;9.90;1.00
3794;DHT22;1912;51.358;12.282;2024-03-02T10:00:51;10.00;1.00
3794;DHT22;1912;51.358;12.282;2024-03-02T10:03:23;10.00;1.00
3794;DHT22;1912;51.358;12.282;2024-03-02T10:05:51;10.10;1.00
3794;DHT22;1912;51.358;12.282;2024-03-02T10:08:17;10.20;1.00
3794;DHT22;1912;51.358;12.282;2024-03-02T10:10:42;10.30;1.00
3794;DHT22;1912;51.358;12.282;2024-03-02T10:13:10;10.40;1.00
3794;DHT22;1912;51.358;12.282;2024-03-02T10:15:37;10.50;1.00
3794;DHT22;1912;51.358;12.282;2024-03-02T10:18:11;10.60;1.00
3794;DHT22;1912;51.358;12.282;2024-03-02T10:20:38;10.80;1.00
3794;DHT22;1912;51.358;12.282;2024-03-02T10:23:13;11.00;1.00
3794;DHT22;1912;51.358;12.282;2024-03-02T10:25:40;11.30;1.00
3794;DHT22;1912;51.358;12.282;2024-03-02T10:28:06;11.50;1.00
3794;DHT22;1912;51.358;12.282;2024-03-02T10:30:32;11.80;1.00
3794;DHT22;1912;51.358;12.282;2024-03-02T10:33:05;11.90;1.00
3794;DHT22;1912;51.358;12.282;2024-03-02T10:35:32;12.20;1.00
3794;DHT22;1912;51.358;12.282;2024-03-02T10:38:03;12.50;1.00
3794;DHT22;1912;51.358;12.282;2024-03-02T10:40:29;12.90;1.00
3794;DHT22;1912;51.358;12.282;2024-03-02T10:42:55;13.10;1.00
3794;DHT22;1912;51.358;12.282;2024-03-02T10:45:22;13.20;1.00
3794;DHT22;1912;51.358;12.282;2024-03-02T10:47:49;13.10;1.00
3794;DHT22;1912;51.358;12.282;2024-03-02T10:50:15;13.10;1.00
3794;DHT22;1912;51.358;12.282;2024-03-02T10:52:41;13.20;1.00
3794;DHT22;1912;51.358;12.282;2024-03-02T10:55:11;13.30;1.00
3794;DHT22;1912;51.358;12.282;2024-03-02T10:57:44;13.60;1.00
3794;DHT22;1912;51.358;12.282;2024-03-02T11:00:15;13.80;1.00
3794;DHT22;1912;51.358;12.282;2024-03-02T11:02:51;13.60;1.00
3794;DHT22;1912;51.358;12.282;2024-03-02T11:07:57;13.80;1.00
3794;DHT22;1912;51.358;12.282;2024-03-02T11:10:27;13.50;1.00
3794;DHT22;1912;51.358;12.282;2024-03-02T11:13:02;13.50;1.00
3794;DHT22;1912;51.358;12.282;2024-03-02T11:15:30;13.90;1.00
3794;DHT22;1912;51.358;12.282;2024-03-02T11:17:57;14.20;1.00
3794;DHT22;1912;51.358;12.282;2024-03-02T11:20:23;14.50;1.00
3794;DHT22;1912;51.358;12.282;2024-03-02T11:22:50;14.60;1.00
3794;DHT22;1912;51.358;12.282;2024-03-02T11:25:26;14.70;1.00
3794;DHT22;1912;51.358;12.282;2024-03-02T11:35:44;14.80;1.00
3794;DHT22;1912;51.358;12.282;2024-03-02T11:38:13;14.80;1.00
3794;DHT22;1912;51.358;12.282;2024-03-02T11:40:40;15.00;1.00
3794;DHT22;1912;51.358;12.282;2024-03-02T11:43:06;15.00;1.00
3794;DHT22;1912;51.358;12.282;2024-03-02T11:45:33;15.00;1.00
3794;DHT22;1912;51.358;12.282;2024-03-02T11:47:59;15.30;1.00
3794;DHT22;1912;51.358;12.282;2024-03-02T11:50:35;15.40;1.00
3794;DHT22;1912;51.358;12.282;2024-03-02T11:53:03;15.60;1.00
3794;DHT22;1912;51.358;12.282;2024-03-02T11:55:35;15.50;1.00
3794;DHT22;1912;51.358;12.282;2024-03-02T11:58:02;15.50;1.00
3794;DHT22;1912;51.358;12.282;2024-03-02T12:00:29;15.70;1.00
3794;DHT22;1912;51.358;12.282;2024-03-02T12:03:06;15.80;1.00
3794;DHT22;1912;51.358;12.282;2024-03-02T12:05:33;15.60;1.00
3794;DHT22;1912;51.358;12.282;2024-03-02T12:08:02;15.60;1.00
3794;DHT22;1912;51.358;12.282;2024-03-02T12:10:33;15.60;1.00
3794;DHT22;1912;51.358;12.282;2024-03-02T12:13:04;15.40;1.00
3794;DHT22;1912;51.358;12.282;2024-03-02T12:15:34;15.50;1.00
3794;DHT22;1912;51.358;12.282;2024-03-02T12:18:02;15.60;1.00
3794;DHT22;1912;51.358;12.282;2024-03-02T12:20:29;15.70;1.00
3794;DHT22;1912;51.358;12.282;2024-03-02T12:23:02;15.80;1.00
3794;DHT22;1912;51.358;12.282;2024-03-02T12:25:30;15.80;1.00
3794;DHT22;1912;51.358;12.282;2024-03-02T12:27:58;16.00;1.00
3794;DHT22;1912;51.358;12.282;2024-03-02T12:30:27;16.20;1.00
3794;DHT22;1912;51.358;12.282;2024-03-02T12:32:54;16.10;1.00
3794;DHT22;1912;51.358;12.282;2024-03-02T12:35:20;16.30;1.00
3794;DHT22;1912;51.358;12.282;2024-03-02T12:37:51;16.10;1.00
3794;DHT22;1912;51.358;12.282;2024-03-02T12:40:19;16.10;1.00
3794;DHT22;1912;51.358;12.282;2024-03-02T12:42:46;16.10;1.00
3794;DHT22;1912;51.358;12.282;2024-03-02T12:45:12;16.10;1.00
3794;DHT22;1912;51.358;12.282;2024-03-02T12:47:40;16.30;1.00
3794;DHT22;1912;51.358;12.282;2024-03-02T12:50:07;16.30;1.00
3794;DHT22;1912;51.358;12.282;2024-03-02T12:52:33;16.20;1.00
3794;DHT22;1912;51.358;12.282;2024-03-02T12:55:04;16.20;1.00
3794;DHT22;1912;51.358;12.282;2024-03-02T12:57:32;16.20;1.00
3794;DHT22;1912;51.358;12.282;2024-03-02T12:59:59;16.20;1.00
3794;DHT22;1912;51.358;12.282;2024-03-02T13:02:34;16.50;1.00
3794;DHT22;1912;51.358;12.282;2024-03-02T13:05:06;16.70;1.00
3794;DHT22;1912;51.358;12.282;2024-03-02T13:07:37;16.90;1.00
3794;DHT22;1912;51.358;12.282;2024-03-02T13:10:03;17.10;1.00
3794;DHT22;1912;51.358;12.282;2024-03-02T13:12:30;17.20;1.00
3794;DHT22;1912;51.358;12.282;2024-03-02T13:14:58;17.40;1.00
3794;DHT22;1912;51.358;12.282;2024-03-02T13:17:24;17.30;1.00
3794;DHT22;1912;51.358;12.282;2024-03-02T13:19:59;17.20;1.00
3794;DHT22;1912;51.358;12.282;2024-03-02T13:22:26;17.00;1.00
3794;DHT22;1912;51.358;12.282;2024-03-02T13:24:52;16.70;1.00
3794;DHT22;1912;51.358;12.282;2024-03-02T13:27:20;16.90;1.00
3794;DHT22;1912;51.358;12.282;2024-03-02T13:29:49;17.00;1.00
3794;DHT22;1912;51.358;12.282;2024-03-02T13:32:15;17.00;1.00
3794;DHT22;1912;51.358;12.282;2024-03-02T13:34:41;17.00;1.00
3794;DHT22;1912;51.358;12.282;2024-03-02T13:37:07;17.00;1.00
3794;DHT22;1912;51.358;12.282;2024-03-02T13:39:33;17.00;1.00
3794;DHT22;1912;51.358;12.282;2024-03-02T13:42:06;17.00;1.00
3794;DHT22;1912;51.358;12.282;2024-03-02T13:44:33;16.80;1.00
3794;DHT22;1912;51.358;12.282;2024-03-02T13:47:00;16.70;1.00
3794;DHT22;1912;51.358;12.282;2024-03-02T13:49:26;16.70;1.00
3794;DHT22;1912;51.358;12.282;2024-03-02T13:52:05;17.00;1.00
3794;DHT22;1912;51.358;12.282;2024-03-02T13:54:43;17.10;1.00
3794;DHT22;1912;51.358;12.282;2024-03-02T13:57:11;17.20;1.00
3794;DHT22;1912;51.358;12.282;2024-03-02T13:59:37;17.10;1.00
3794;DHT22;1912;51.358;12.282;2024-03-02T14:02:05;17.30;1.00
3794;DHT22;1912;51.358;12.282;2024-03-02T14:04:34;17.30;1.00
3794;DHT22;1912;51.358;12.282;2024-03-02T14:07:00;17.20;1.00
3794;DHT22;1912;51.358;12.282;2024-03-02T14:09:26;16.90;1.00
3794;DHT22;1912;51.358;12.282;2024-03-02T14:11:53;16.80;1.00
3794;DHT22;1912;51.358;12.282;2024-03-02T14:14:20;16.80;1.00
3794;DHT22;1912;51.358;12.282;2024-03-02T14:16:45;16.80;1.00
3794;DHT22;1912;51.358;12.282;2024-03-02T14:19:11;16.70;1.00
3794;DHT22;1912;51.358;12.282;2024-03-02T14:21:40;16.80;1.00
3794;DHT22;1912;51.358;12.282;2024-03-02T14:24:06;16.90;1.00
3794;DHT22;1912;51.358;12.282;2024-03-02T14:26:32;16.90;1.00
3794;DHT22;1912;51.358;12.282;2024-03-02T14:28:59;16.70;1.00
3794;DHT22;1912;51.358;12.282;2024-03-02T14:31:27;16.60;1.00
3794;DHT22;1912;51.358;12.282;2024-03-02T14:33:53;16.50;1.00
3794;DHT22;1912;51.358;12.282;2024-03-02T14:36:19;16.40;1.00
3794;DHT22;1912;51.358;12.282;2024-03-02T14:38:45;16.20;1.00
3794;DHT22;1912;51.358;12.282;2024-03-02T14:41:11;16.30;1.00
3794;DHT22;1912;51.358;12.282;2024-03-02T14:43:38;16.20;1.00
3794;DHT22;1912;51.358;12.282;2024-03-02T14:46:04;16.00;1.00
3794;DHT22;1912;51.358;12.282;2024-03-02T14:48:30;15.90;1.00
3794;DHT22;1912;51.358;12.282;2024-03-02T14:50:55;15.80;1.00
3794;DHT22;1912;51.358;12.282;2024-03-02T14:53:21;15.70;1.00
3794;DHT22;1912;51.358;12.282;2024-03-02T14:55:47;15.70;1.00
3794;DHT22;1912;51.358;12.282;2024-03-02T14:58:12;15.80;1.00
3794;DHT22;1912;51.358;12.282;2024-03-02T15:00:38;15.70;1.00
3794;DHT22;1912;51.358;12.282;2024-03-02T15:03:04;15.70;1.00
3794;DHT22;1912;51.358;12.282;2024-03-02T15:05:32;15.60;1.00
3794;DHT22;1912;51.358;12.282;2024-03-02T15:07:58;15.60;1.00
3794;DHT22;1912;51.358;12.282;2024-03-02T15:10:27;15.50;1.00
3794;DHT22;1912;51.358;12.282;2024-03-02T15:12:53;15.40;1.00
3794;DHT22;1912;51.358;12.282;2024-03-02T15:15:18;15.30;1.00
3794;DHT22;1912;51.358;12.282;2024-03-02T15:17:44;15.30;1.00
3794;DHT22;1912;51.358;12.282;2024-03-02T15:20:10;15.10;1.00
3794;DHT22;1912;51.358;12.282;2024-03-02T15:22:36;15.10;1.00
3794;DHT22;1912;51.358;12.282;2024-03-02T15:25:01;14.90;1.00
3794;DHT22;1912;51.358;12.282;2024-03-02T15:27:27;14.70;1.00
3794;DHT22;1912;51.358;12.282;2024-03-02T15:29:53;14.70;1.00
3794;DHT22;1912;51.358;12.282;2024-03-02T15:32:20;14.50;1.00
3794;DHT22;1912;51.358;12.282;2024-03-02T15:34:46;14.50;1.00
3794;DHT22;1912;51.358;12.282;2024-03-02T15:37:11;14.40;1.00
3794;DHT22;1912;51.358;12.282;2024-03-02T15:39:37;14.40;1.00
3794;DHT22;1912;51.358;12.282;2024-03-02T15:42:03;14.30;1.00
3794;DHT22;1912;51.358;12.282;2024-03-02T15:44:30;14.30;1.00
3794;DHT22;1912;51.358;12.282;2024-03-02T15:46:57;14.20;1.00
3794;DHT22;1912;51.358;12.282;2024-03-02T15:49:23;14.20;1.00
3794;DHT22;1912;51.358;12.282;2024-03-02T15:51:49;14.20;1.00
3794;DHT22;1912;51.358;12.282;2024-03-02T15:54:15;14.10;1.00
3794;DHT22;1912;51.358;12.282;2024-03-02T15:56:41;14.00;1.00
3794;DHT22;1912;51.358;12.282;2024-03-02T15:59:06;14.00;1.00
3794;DHT22;1912;51.358;12.282;2024-03-02T16:01:32;14.00;1.00
3794;DHT22;1912;51.358;12.282;2024-03-02T16:03:58;13.90;1.00
3794;DHT22;1912;51.358;12.282;2024-03-02T16:06:23;13.90;1.00
3794;DHT22;1912;51.358;12.282;2024-03-02T16:08:49;13.90;1.00
3794;DHT22;1912;51.358;12.282;2024-03-02T16:11:16;13.80;1.00
3794;DHT22;1912;51.358;12.282;2024-03-02T16:13:42;13.80;1.00
3794;DHT22;1912;51.358;12.282;2024-03-02T16:16:07;13.70;1.00
3794;DHT22;1912;51.358;12.282;2024-03-02T16:18:33;13.70;1.00
3794;DHT22;1912;51.358;12.282;2024-03-02T16:20:59;13.60;1.00
3794;DHT22;1912;51.358;12.282;2024-03-02T16:23:25;13.40;1.00
3794;DHT22;1912;51.358;12.282;2024-03-02T16:25:50;13.30;1.00
3794;DHT22;1912;51.358;12.282;2024-03-02T16:28:16;13.20;1.00
3794;DHT22;1912;51.358;12.282;2024-03-02T16:30:42;13.10;1.00
3794;DHT22;1912;51.358;12.282;2024-03-02T16:33:07;13.00;1.00
3794;DHT22;1912;51.358;12.282;2024-03-02T16:35:33;13.00;1.00
3794;DHT22;1912;51.358;12.282;2024-03-02T16:37:59;13.00;1.00
3794;DHT22;1912;51.358;12.282;2024-03-02T16:40:24;12.90;1.00
3794;DHT22;1912;51.358;12.282;2024-03-02T16:42:50;12.70;1.00
3794;DHT22;1912;51.358;12.282;2024-03-02T16:45:17;12.70;1.00
3794;DHT22;1912;51.358;12.282;2024-03-02T16:47:43;12.60;1.00
3794;DHT22;1912;51.358;12.282;2024-03-02T16:50:09;12.50;1.00
3794;DHT22;1912;51.358;12.282;2024-03-02T16:52:37;12.50;1.00
3794;DHT22;1912;51.358;12.282;2024-03-02T16:55:03;12.40;1.00
3794;DHT22;1912;51.358;12.282;2024-03-02T16:57:28;12.30;1.00
3794;DHT22;1912;51.358;12.282;2024-03-02T16:59:54;12.30;1.00
3794;DHT22;1912;51.358;12.282;2024-03-02T17:02:20;12.20;1.00
3794;DHT22;1912;51.358;12.282;2024-03-02T17:04:45;12.10;1.00
3794;DHT22;1912;51.358;12.282;2024-03-02T17:07:11;12.10;1.00
3794;DHT22;1912;51.358;12.282;2024-03-02T17:09:37;12.00;1.00
3794;DHT22;1912;51.358;12.282;2024-03-02T17:12:02;11.90;1.00
3794;DHT22;1912;51.358;12.282;2024-03-02T17:14:28;11.90;1.00
3794;DHT22;1912;51.358;12.282;2024-03-02T17:16:54;11.80;1.00
3794;DHT22;1912;51.358;12.282;2024-03-02T17:19:19;11.80;1.00
3794;DHT22;1912;51.358;12.282;2024-03-02T17:21:45;11.70;1.00
3794;DHT22;1912;51.358;12.282;2024-03-02T17:24:11;11.60;1.00
3794;DHT22;1912;51.358;12.282;2024-03-02T17:26:36;11.60;1.00
3794;DHT22;1912;51.358;12.282;2024-03-02T17:29:04;11.50;1.00
3794;DHT22;1912;51.358;12.282;2024-03-02T17:31:30;11.50;1.00
3794;DHT22;1912;51.358;12.282;2024-03-02T17:33:56;11.40;1.00
3794;DHT22;1912;51.358;12.282;2024-03-02T17:36:22;11.40;1.00
3794;DHT22;1912;51.358;12.282;2024-03-02T17:38:47;11.30;1.00
3794;DHT22;1912;51.358;12.282;2024-03-02T17:41:13;11.20;1.00
3794;DHT22;1912;51.358;12.282;2024-03-02T17:43:39;11.20;1.00
3794;DHT22;1912;51.358;12.282;2024-03-02T17:46:05;11.10;1.00
3794;DHT22;1912;51.358;12.282;2024-03-02T17:48:31;11.10;1.00
3794;DHT22;1912;51.358;12.282;2024-03-02T17:50:57;11.00;1.00
3794;DHT22;1912;51.358;12.282;2024-03-02T17:53:23;11.00;1.00
3794;DHT22;1912;51.358;12.282;2024-03-02T17:55:49;11.00;1.00
3794;DHT22;1912;51.358;12.282;2024-03-02T17:58:14;10.90;1.00
3794;DHT22;1912;51.358;12.282;2024-03-02T18:00:41;10.80;1.00
3794;DHT22;1912;51.358;12.282;2024-03-02T18:03:06;10.80;1.00
3794;DHT22;1912;51.358;12.282;2024-03-02T18:05:32;10.80;1.00
3794;DHT22;1912;51.358;12.282;2024-03-02T18:07:59;10.80;1.00
3794;DHT22;1912;51.358;12.282;2024-03-02T18:10:24;10.70;1.00
3794;DHT22;1912;51.358;12.282;2024-03-02T18:12:50;10.70;1.00
3794;DHT22;1912;51.358;12.282;2024-03-02T18:15:16;10.60;1.00
3794;DHT22;1912;51.358;12.282;2024-03-02T18:17:41;10.60;1.00
3794;DHT22;1912;51.358;12.282;2024-03-02T18:20:08;10.60;1.00
3794;DHT22;1912;51.358;12.282;2024-03-02T18:22:36;10.60;1.00
3794;DHT22;1912;51.358;12.282;2024-03-02T18:25:02;10.60;1.00
3794;DHT22;1912;51.358;12.282;2024-03-02T18:27:28;10.50;1.00
3794;DHT22;1912;51.358;12.282;2024-03-02T18:29:53;10.50;1.00
3794;DHT22;1912;51.358;12.282;2024-03-02T18:32:19;10.40;1.00
3794;DHT22;1912;51.358;12.282;2024-03-02T18:34:45;10.40;1.00
3794;DHT22;1912;51.358;12.282;2024-03-02T18:37:12;10.40;1.00
3794;DHT22;1912;51.358;12.282;2024-03-02T18:39:40;10.40;1.00
3794;DHT22;1912;51.358;12.282;2024-03-02T18:42:05;10.30;1.00
3794;DHT22;1912;51.358;12.282;2024-03-02T18:44:31;10.30;1.00
3794;DHT22;1912;51.358;12.282;2024-03-02T18:46:57;10.20;1.00
3794;DHT22;1912;51.358;12.282;2024-03-02T18:49:22;10.20;1.00
3794;DHT22;1912;51.358;12.282;2024-03-02T18:51:48;10.20;1.00
3794;DHT22;1912;51.358;12.282;2024-03-02T18:54:14;10.20;1.00
3794;DHT22;1912;51.358;12.282;2024-03-02T18:56:41;10.20;1.00
3794;DHT22;1912;51.358;12.282;2024-03-02T18:59:07;10.20;1.00
3794;DHT22;1912;51.358;12.282;2024-03-02T19:01:33;10.10;1.00
3794;DHT22;1912;51.358;12.282;2024-03-02T19:03:58;10.10;1.00
3794;DHT22;1912;51.358;12.282;2024-03-02T19:06:24;10.10;1.00
3794;DHT22;1912;51.358;12.282;2024-03-02T19:08:49;10.10;1.00
3794;DHT22;1912;51.358;12.282;2024-03-02T19:11:16;10.00;1.00
3794;DHT22;1912;51.358;12.282;2024-03-02T19:13:42;9.90;1.00
3794;DHT22;1912;51.358;12.282;2024-03-02T19:16:12;9.90;1.00
3794;DHT22;1912;51.358;12.282;2024-03-02T19:18:38;9.90;1.00
3794;DHT22;1912;51.358;12.282;2024-03-02T19:21:05;9.90;1.00
3794;DHT22;1912;51.358;12.282;2024-03-02T19:23:31;9.80;1.00
3794;DHT22;1912;51.358;12.282;2024-03-02T19:25:57;9.80;1.00
3794;DHT22;1912;51.358;12.282;2024-03-02T19:28:23;9.80;1.00
3794;DHT22;1912;51.358;12.282;2024-03-02T19:30:48;9.80;1.00
3794;DHT22;1912;51.358;12.282;2024-03-02T19:33:14;9.70;1.00
3794;DHT22;1912;51.358;12.282;2024-03-02T19:35:41;9.70;1.00
3794;DHT22;1912;51.358;12.282;2024-03-02T19:38:06;9.60;1.00
3794;DHT22;1912;51.358;12.282;2024-03-02T19:40:33;9.60;1.00
3794;DHT22;1912;51.358;12.282;2024-03-02T19:42:59;9.60;1.00
3794;DHT22;1912;51.358;12.282;2024-03-02T19:45:25;9.60;1.00
3794;DHT22;1912;51.358;12.282;2024-03-02T19:47:51;9.60;1.00
3794;DHT22;1912;51.358;12.282;2024-03-02T19:50:17;9.50;1.00
3794;DHT22;1912;51.358;12.282;2024-03-02T19:52:46;9.50;1.00
3794;DHT22;1912;51.358;12.282;2024-03-02T19:55:12;9.50;1.00
3794;DHT22;1912;51.358;12.282;2024-03-02T19:57:42;9.50;1.00
3794;DHT22;1912;51.358;12.282;2024-03-02T20:00:12;9.40;1.00
3794;DHT22;1912;51.358;12.282;2024-03-02T20:02:39;9.40;1.00
3794;DHT22;1912;51.358;12.282;2024-03-02T20:05:05;9.40;1.00
3794;DHT22;1912;51.358;12.282;2024-03-02T20:07:31;9.40;1.00
3794;DHT22;1912;51.358;12.282;2024-03-02T20:09:57;9.30;1.00
3794;DHT22;1912;51.358;12.282;2024-03-02T20:12:23;9.30;1.00
3794;DHT22;1912;51.358;12.282;2024-03-02T20:14:49;9.30;1.00
3794;DHT22;1912;51.358;12.282;2024-03-02T20:17:15;9.30;1.00
3794;DHT22;1912;51.358;12.282;2024-03-02T20:19:41;9.30;1.00
3794;DHT22;1912;51.358;12.282;2024-03-02T20:22:06;9.30;1.00
3794;DHT22;1912;51.358;12.282;2024-03-02T20:24:32;9.30;1.00
3794;DHT22;1912;51.358;12.282;2024-03-02T20:26:58;9.30;1.00
3794;DHT22;1912;51.358;12.282;2024-03-02T20:29:23;9.30;1.00
3794;DHT22;1912;51.358;12.282;2024-03-02T20:31:49;9.30;1.00
3794;DHT22;1912;51.358;12.282;2024-03-02T20:34:15;9.30;1.00
3794;DHT22;1912;51.358;12.282;2024-03-02T20:36:43;9.30;1.00
3794;DHT22;1912;51.358;12.282;2024-03-02T20:39:09;9.30;1.00
3794;DHT22;1912;51.358;12.282;2024-03-02T20:41:35;9.30;1.00
3794;DHT22;1912;51.358;12.282;2024-03-02T20:44:04;9.20;1.00
3794;DHT22;1912;51.358;12.282;2024-03-02T20:46:30;9.20;1.00
3794;DHT22;1912;51.358;12.282;2024-03-02T20:48:56;9.20;1.00
3794;DHT22;1912;51.358;12.282;2024-03-02T20:51:22;9.20;1.00
3794;DHT22;1912;51.358;12.282;2024-03-02T20:53:55;9.20;1.00
3794;DHT22;1912;51.358;12.282;2024-03-02T20:56:24;9.20;1.00
3794;DHT22;1912;51.358;12.282;2024-03-02T20:58:51;9.20;1.00
3794;DHT22;1912;51.358;12.282;2024-03-02T21:01:17;9.10;1.00
3794;DHT22;1912;51.358;12.282;2024-03-02T21:03:43;9.10;1.00
3794;DHT22;1912;51.358;12.282;2024-03-02T21:06:09;9.10;1.00
3794;DHT22;1912;51.358;12.282;2024-03-02T21:08:35;9.00;1.00